sensor_id;sensor_type;location;lat;lon;timestamp;temperature;humidity
27266;DHT22;14766;51.380;13.762;2023-12-22T00:00:51;8.50;63.40
27266;DHT22;14766;51.380;13.762;2023-12-22T00:03:18;8.50;63.10
27266;DHT22;14766;51.380;13.762;2023-12-22T00:05:45;8.50;63.00
27266;DHT22;14766;51.380;13.762;2023-12-22T00:08:12;8.50;63.30
27266;DHT22;14766;51.380;13.762;2023-12-22T00:10:39;8.50;63.40
27266;DHT22;14766;51.380;13.762;2023-12-22T00:13:07;8.50;63.00
27266;DHT22;14766;51.380;13.762;2023-12-22T00:15:34;8.50;63.20
27266;DHT22;14766;51.380;13.762;2023-12-22T00:18:02;8.50;63.20
27266;DHT22;14766;51.380;13.762;2023-12-22T00:20:29;8.50;63.40
27266;DHT22;14766;51.380;13.762;2023-12-22T00:22:56;8.50;63.80
27266;DHT22;14766;51.380;13.762;2023-12-22T00:25:25;8.50;63.90
27266;DHT22;14766;51.380;13.762;2023-12-22T00:27:52;8.50;63.90
27266;DHT22;14766;51.380;13.762;2023-12-22T00:30:19;8.50;64.20
27266;DHT22;14766;51.380;13.762;2023-12-22T00:32:46;8.40;64.70
27266;DHT22;14766;51.380;13.762;2023-12-22T00:35:13;8.40;65.40
27266;DHT22;14766;51.380;13.762;2023-12-22T00:37:40;8.40;65.70
27266;DHT22;14766;51.380;13.762;2023-12-22T00:40:08;8.40;65.80
27266;DHT22;14766;51.380;13.762;2023-12-22T00:42:36;8.30;65.60
27266;DHT22;14766;51.380;13.762;2023-12-22T00:45:03;8.30;66.00
27266;DHT22;14766;51.380;13.762;2023-12-22T00:47:31;8.30;65.80
27266;DHT22;14766;51.380;13.762;2023-12-22T00:49:58;8.30;65.10
27266;DHT22;14766;51.380;13.762;2023-12-22T00:52:27;8.30;65.50
27266;DHT22;14766;51.380;13.762;2023-12-22T00:54:55;8.30;64.90
27266;DHT22;14766;51.380;13.762;2023-12-22T00:57:22;8.30;65.10
27266;DHT22;14766;51.380;13.762;2023-12-22T00:59:49;8.30;65.50
27266;DHT22;14766;51.380;13.762;2023-12-22T01:02:17;8.20;65.60
27266;DHT22;14766;51.380;13.762;2023-12-22T01:04:44;8.20;65.00
27266;DHT22;14766;51.380;13.762;2023-12-22T01:07:13;8.20;65.40
27266;DHT22;14766;51.380;13.762;2023-12-22T01:09:42;8.20;64.90
27266;DHT22;14766;51.380;13.762;2023-12-22T01:12:09;8.20;65.00
27266;DHT22;14766;51.380;13.762;2023-12-22T01:14:37;8.20;64.10
27266;DHT22;14766;51.380;13.762;2023-12-22T01:17:04;8.20;63.50
27266;DHT22;14766;51.380;13.762;2023-12-22T01:19:31;8.20;63.70
27266;DHT22;14766;51.380;13.762;2023-12-22T01:21:59;8.20;63.20
27266;DHT22;14766;51.380;13.762;2023-12-22T01:24:26;8.20;63.10
27266;DHT22;14766;51.380;13.762;2023-12-22T01:26:53;8.20;63.20
27266;DHT22;14766;51.380;13.762;2023-12-22T01:29:20;8.20;63.70
27266;DHT22;14766;51.380;13.762;2023-12-22T01:31:47;8.20;63.90
27266;DHT22;14766;51.380;13.762;2023-12-22T01:34:14;8.20;64.00
27266;DHT22;14766;51.380;13.762;2023-12-22T01:36:41;8.20;63.60
27266;DHT22;14766;51.380;13.762;2023-12-22T01:39:09;8.20;63.30
27266;DHT22;14766;51.380;13.762;2023-12-22T01:41:37;8.20;63.40
27266;DHT22;14766;51.380;13.762;2023-12-22T01:44:04;8.20;63.20
27266;DHT22;14766;51.380;13.762;2023-12-22T01:46:32;8.20;63.20
27266;DHT22;14766;51.380;13.762;2023-12-22T01:49:00;8.30;63.60
27266;DHT22;14766;51.380;13.762;2023-12-22T01:51:29;8.30;63.30
27266;DHT22;14766;51.380;13.762;2023-12-22T01:53:58;8.30;63.00
27266;DHT22;14766;51.380;13.762;2023-12-22T01:56:25;8.30;63.10
27266;DHT22;14766;51.380;13.762;2023-12-22T01:58:54;8.40;63.20
27266;DHT22;14766;51.380;13.762;2023-12-22T02:01:22;8.40;62.90
27266;DHT22;14766;51.380;13.762;2023-12-22T02:03:51;8.40;62.70
27266;DHT22;14766;51.380;13.762;2023-12-22T02:06:20;8.40;63.00
27266;DHT22;14766;51.380;13.762;2023-12-22T02:08:48;8.40;63.00
27266;DHT22;14766;51.380;13.762;2023-12-22T02:11:16;8.40;63.30
27266;DHT22;14766;51.380;13.762;2023-12-22T02:13:43;8.40;63.50
27266;DHT22;14766;51.380;13.762;2023-12-22T02:18:50;8.30;63.90
27266;DHT22;14766;51.380;13.762;2023-12-22T02:21:20;8.30;63.80
27266;DHT22;14766;51.380;13.762;2023-12-22T02:23:48;8.20;64.00
27266;DHT22;14766;51.380;13.762;2023-12-22T02:26:41;8.20;63.90
27266;DHT22;14766;51.380;13.762;2023-12-22T02:29:11;8.20;63.80
27266;DHT22;14766;51.380;13.762;2023-12-22T02:31:44;8.20;64.10
27266;DHT22;14766;51.380;13.762;2023-12-22T02:34:19;8.10;64.00
27266;DHT22;14766;51.380;13.762;2023-12-22T02:36:47;8.10;64.20
27266;DHT22;14766;51.380;13.762;2023-12-22T02:39:16;8.20;64.50
27266;DHT22;14766;51.380;13.762;2023-12-22T02:41:44;8.10;64.60
27266;DHT22;14766;51.380;13.762;2023-12-22T02:44:12;8.10;64.80
27266;DHT22;14766;51.380;13.762;2023-12-22T02:46:39;8.10;65.50
27266;DHT22;14766;51.380;13.762;2023-12-22T02:49:08;8.10;65.70
27266;DHT22;14766;51.380;13.762;2023-12-22T02:51:35;8.10;65.70
27266;DHT22;14766;51.380;13.762;2023-12-22T02:54:02;8.10;65.50
27266;DHT22;14766;51.380;13.762;2023-12-22T02:56:30;8.00;65.50
27266;DHT22;14766;51.380;13.762;2023-12-22T02:58:57;8.00;65.60
27266;DHT22;14766;51.380;13.762;2023-12-22T03:01:25;8.00;65.30
27266;DHT22;14766;51.380;13.762;2023-12-22T03:03:53;8.00;65.50
27266;DHT22;14766;51.380;13.762;2023-12-22T03:06:21;8.00;65.50
27266;DHT22;14766;51.380;13.762;2023-12-22T03:08:49;8.00;65.50
27266;DHT22;14766;51.380;13.762;2023-12-22T03:11:16;7.90;65.90
27266;DHT22;14766;51.380;13.762;2023-12-22T03:13:43;8.00;66.50
27266;DHT22;14766;51.380;13.762;2023-12-22T03:16:10;8.00;67.00
27266;DHT22;14766;51.380;13.762;2023-12-22T03:18:40;8.00;67.20
27266;DHT22;14766;51.380;13.762;2023-12-22T03:21:07;7.90;67.60
27266;DHT22;14766;51.380;13.762;2023-12-22T03:23:34;7.90;67.60
27266;DHT22;14766;51.380;13.762;2023-12-22T03:26:04;8.00;67.70
27266;DHT22;14766;51.380;13.762;2023-12-22T03:28:32;8.00;67.70
27266;DHT22;14766;51.380;13.762;2023-12-22T03:31:00;8.00;67.80
27266;DHT22;14766;51.380;13.762;2023-12-22T03:33:27;7.90;68.20
27266;DHT22;14766;51.380;13.762;2023-12-22T03:35:55;7.90;68.50
27266;DHT22;14766;51.380;13.762;2023-12-22T03:38:24;7.90;68.80
27266;DHT22;14766;51.380;13.762;2023-12-22T03:40:52;7.80;69.20
27266;DHT22;14766;51.380;13.762;2023-12-22T03:43:19;7.80;69.20
27266;DHT22;14766;51.380;13.762;2023-12-22T03:45:46;7.80;69.60
27266;DHT22;14766;51.380;13.762;2023-12-22T03:48:13;7.70;70.20
27266;DHT22;14766;51.380;13.762;2023-12-22T03:50:41;7.70;70.50
27266;DHT22;14766;51.380;13.762;2023-12-22T03:53:08;7.60;70.80
27266;DHT22;14766;51.380;13.762;2023-12-22T03:55:35;7.60;70.90
27266;DHT22;14766;51.380;13.762;2023-12-22T03:58:02;7.60;71.10
27266;DHT22;14766;51.380;13.762;2023-12-22T04:00:31;7.60;71.20
27266;DHT22;14766;51.380;13.762;2023-12-22T04:02:58;7.60;70.60
27266;DHT22;14766;51.380;13.762;2023-12-22T04:05:25;7.60;70.70
27266;DHT22;14766;51.380;13.762;2023-12-22T04:07:52;7.60;70.30
27266;DHT22;14766;51.380;13.762;2023-12-22T04:10:19;7.60;70.20
27266;DHT22;14766;51.380;13.762;2023-12-22T04:12:48;7.60;69.90
27266;DHT22;14766;51.380;13.762;2023-12-22T04:15:15;7.60;69.50
27266;DHT22;14766;51.380;13.762;2023-12-22T04:17:42;7.60;69.50
27266;DHT22;14766;51.380;13.762;2023-12-22T04:20:09;7.60;68.80
27266;DHT22;14766;51.380;13.762;2023-12-22T04:22:38;7.60;68.70
27266;DHT22;14766;51.380;13.762;2023-12-22T04:25:07;7.60;68.80
27266;DHT22;14766;51.380;13.762;2023-12-22T04:27:35;7.60;68.80
27266;DHT22;14766;51.380;13.762;2023-12-22T04:30:02;7.70;68.20
27266;DHT22;14766;51.380;13.762;2023-12-22T04:32:30;7.70;68.00
27266;DHT22;14766;51.380;13.762;2023-12-22T04:34:57;7.80;67.30
27266;DHT22;14766;51.380;13.762;2023-12-22T04:37:24;7.80;67.10
27266;DHT22;14766;51.380;13.762;2023-12-22T04:39:51;7.80;66.10
27266;DHT22;14766;51.380;13.762;2023-12-22T04:42:18;7.80;66.20
27266;DHT22;14766;51.380;13.762;2023-12-22T04:44:46;7.80;65.60
27266;DHT22;14766;51.380;13.762;2023-12-22T04:47:14;7.80;65.60
27266;DHT22;14766;51.380;13.762;2023-12-22T04:49:41;7.80;65.20
27266;DHT22;14766;51.380;13.762;2023-12-22T04:52:09;7.80;65.20
27266;DHT22;14766;51.380;13.762;2023-12-22T04:54:37;7.80;65.80
27266;DHT22;14766;51.380;13.762;2023-12-22T04:57:05;7.80;66.40
27266;DHT22;14766;51.380;13.762;2023-12-22T04:59:32;7.70;66.10
27266;DHT22;14766;51.380;13.762;2023-12-22T05:01:59;7.70;66.80
27266;DHT22;14766;51.380;13.762;2023-12-22T05:04:27;7.70;67.00
27266;DHT22;14766;51.380;13.762;2023-12-22T05:06:54;7.70;67.00
27266;DHT22;14766;51.380;13.762;2023-12-22T05:09:22;7.60;66.60
27266;DHT22;14766;51.380;13.762;2023-12-22T05:11:52;7.60;67.20
27266;DHT22;14766;51.380;13.762;2023-12-22T05:14:20;7.60;66.60
27266;DHT22;14766;51.380;13.762;2023-12-22T05:16:47;7.60;66.80
27266;DHT22;14766;51.380;13.762;2023-12-22T05:19:14;7.60;66.80
27266;DHT22;14766;51.380;13.762;2023-12-22T05:21:41;7.60;66.80
27266;DHT22;14766;51.380;13.762;2023-12-22T05:24:08;7.60;66.90
27266;DHT22;14766;51.380;13.762;2023-12-22T05:26:35;7.60;66.90
27266;DHT22;14766;51.380;13.762;2023-12-22T05:29:02;7.50;67.00
27266;DHT22;14766;51.380;13.762;2023-12-22T05:31:29;7.50;67.40
27266;DHT22;14766;51.380;13.762;2023-12-22T05:33:58;7.60;67.50
27266;DHT22;14766;51.380;13.762;2023-12-22T05:36:26;7.60;67.30
27266;DHT22;14766;51.380;13.762;2023-12-22T05:38:53;7.60;66.90
27266;DHT22;14766;51.380;13.762;2023-12-22T05:41:20;7.50;67.30
27266;DHT22;14766;51.380;13.762;2023-12-22T05:43:47;7.60;67.60
27266;DHT22;14766;51.380;13.762;2023-12-22T05:46:15;7.50;67.80
27266;DHT22;14766;51.380;13.762;2023-12-22T05:48:42;7.50;67.80
27266;DHT22;14766;51.380;13.762;2023-12-22T05:51:09;7.50;67.40
27266;DHT22;14766;51.380;13.762;2023-12-22T05:53:40;7.50;67.00
27266;DHT22;14766;51.380;13.762;2023-12-22T05:56:22;7.40;66.30
27266;DHT22;14766;51.380;13.762;2023-12-22T05:58:50;7.40;65.80
27266;DHT22;14766;51.380;13.762;2023-12-22T06:01:20;7.40;65.30
27266;DHT22;14766;51.380;13.762;2023-12-22T06:03:47;7.40;65.30
27266;DHT22;14766;51.380;13.762;2023-12-22T06:06:15;7.40;65.20
27266;DHT22;14766;51.380;13.762;2023-12-22T06:08:42;7.40;65.10
27266;DHT22;14766;51.380;13.762;2023-12-22T06:11:09;7.50;65.20
27266;DHT22;14766;51.380;13.762;2023-12-22T06:13:36;7.50;65.10
27266;DHT22;14766;51.380;13.762;2023-12-22T06:16:03;7.50;65.30
27266;DHT22;14766;51.380;13.762;2023-12-22T06:18:30;7.50;64.70
27266;DHT22;14766;51.380;13.762;2023-12-22T06:20:58;7.50;64.60
27266;DHT22;14766;51.380;13.762;2023-12-22T06:23:25;7.50;64.60
27266;DHT22;14766;51.380;13.762;2023-12-22T06:25:52;7.50;65.20
27266;DHT22;14766;51.380;13.762;2023-12-22T06:28:21;7.50;65.50
27266;DHT22;14766;51.380;13.762;2023-12-22T06:30:48;7.50;65.60
27266;DHT22;14766;51.380;13.762;2023-12-22T06:33:15;7.50;65.90
27266;DHT22;14766;51.380;13.762;2023-12-22T06:35:42;7.50;65.80
27266;DHT22;14766;51.380;13.762;2023-12-22T06:38:11;7.50;65.30
27266;DHT22;14766;51.380;13.762;2023-12-22T06:40:39;7.40;64.70
27266;DHT22;14766;51.380;13.762;2023-12-22T06:43:06;7.40;64.80
27266;DHT22;14766;51.380;13.762;2023-12-22T06:45:33;7.40;65.30
27266;DHT22;14766;51.380;13.762;2023-12-22T06:48:01;7.40;65.00
27266;DHT22;14766;51.380;13.762;2023-12-22T06:50:29;7.40;64.60
27266;DHT22;14766;51.380;13.762;2023-12-22T06:52:58;7.50;64.80
27266;DHT22;14766;51.380;13.762;2023-12-22T06:55:36;7.50;64.90
27266;DHT22;14766;51.380;13.762;2023-12-22T06:58:03;7.50;65.60
27266;DHT22;14766;51.380;13.762;2023-12-22T07:00:31;7.50;66.20
27266;DHT22;14766;51.380;13.762;2023-12-22T07:02:58;7.50;66.70
27266;DHT22;14766;51.380;13.762;2023-12-22T07:05:32;7.50;67.00
27266;DHT22;14766;51.380;13.762;2023-12-22T07:07:59;7.50;67.80
27266;DHT22;14766;51.380;13.762;2023-12-22T07:10:27;7.50;67.60
27266;DHT22;14766;51.380;13.762;2023-12-22T07:12:55;7.50;67.20
27266;DHT22;14766;51.380;13.762;2023-12-22T07:15:22;7.50;67.40
27266;DHT22;14766;51.380;13.762;2023-12-22T07:17:48;7.40;67.50
27266;DHT22;14766;51.380;13.762;2023-12-22T07:20:16;7.40;67.30
27266;DHT22;14766;51.380;13.762;2023-12-22T07:22:46;7.40;66.30
27266;DHT22;14766;51.380;13.762;2023-12-22T07:25:15;7.30;66.30
27266;DHT22;14766;51.380;13.762;2023-12-22T07:27:42;7.30;66.60
27266;DHT22;14766;51.380;13.762;2023-12-22T07:30:09;7.30;65.40
27266;DHT22;14766;51.380;13.762;2023-12-22T07:32:38;7.30;65.60
27266;DHT22;14766;51.380;13.762;2023-12-22T07:35:07;7.40;65.80
27266;DHT22;14766;51.380;13.762;2023-12-22T07:37:35;7.40;65.90
27266;DHT22;14766;51.380;13.762;2023-12-22T07:40:05;7.40;64.60
27266;DHT22;14766;51.380;13.762;2023-12-22T07:42:32;7.40;65.10
27266;DHT22;14766;51.380;13.762;2023-12-22T07:45:00;7.40;65.40
27266;DHT22;14766;51.380;13.762;2023-12-22T07:47:30;7.50;65.10
27266;DHT22;14766;51.380;13.762;2023-12-22T07:49:59;7.50;64.40
27266;DHT22;14766;51.380;13.762;2023-12-22T07:52:29;7.50;63.70
27266;DHT22;14766;51.380;13.762;2023-12-22T07:54:56;7.50;63.90
27266;DHT22;14766;51.380;13.762;2023-12-22T07:57:23;7.50;63.70
27266;DHT22;14766;51.380;13.762;2023-12-22T07:59:50;7.60;63.70
27266;DHT22;14766;51.380;13.762;2023-12-22T08:02:17;7.60;64.10
27266;DHT22;14766;51.380;13.762;2023-12-22T08:04:45;7.60;64.20
27266;DHT22;14766;51.380;13.762;2023-12-22T08:07:12;7.60;64.00
27266;DHT22;14766;51.380;13.762;2023-12-22T08:09:39;7.60;63.70
27266;DHT22;14766;51.380;13.762;2023-12-22T08:12:06;7.60;63.80
27266;DHT22;14766;51.380;13.762;2023-12-22T08:14:33;7.60;63.90
27266;DHT22;14766;51.380;13.762;2023-12-22T08:17:00;7.60;63.70
27266;DHT22;14766;51.380;13.762;2023-12-22T08:19:27;7.60;64.20
27266;DHT22;14766;51.380;13.762;2023-12-22T08:21:58;7.60;64.20
27266;DHT22;14766;51.380;13.762;2023-12-22T08:24:31;7.60;63.90
27266;DHT22;14766;51.380;13.762;2023-12-22T08:26:58;7.60;64.00
27266;DHT22;14766;51.380;13.762;2023-12-22T08:29:25;7.60;64.30
27266;DHT22;14766;51.380;13.762;2023-12-22T08:31:52;7.50;64.50
27266;DHT22;14766;51.380;13.762;2023-12-22T08:34:20;7.50;66.10
27266;DHT22;14766;51.380;13.762;2023-12-22T08:36:48;7.40;66.80
27266;DHT22;14766;51.380;13.762;2023-12-22T08:39:15;7.40;67.50
27266;DHT22;14766;51.380;13.762;2023-12-22T08:41:42;7.30;67.40
27266;DHT22;14766;51.380;13.762;2023-12-22T08:44:10;7.20;67.90
27266;DHT22;14766;51.380;13.762;2023-12-22T08:46:37;7.20;68.20
27266;DHT22;14766;51.380;13.762;2023-12-22T08:49:05;7.20;68.90
27266;DHT22;14766;51.380;13.762;2023-12-22T08:51:32;7.10;69.20
27266;DHT22;14766;51.380;13.762;2023-12-22T08:53:59;7.10;69.50
27266;DHT22;14766;51.380;13.762;2023-12-22T08:56:26;7.10;70.10
27266;DHT22;14766;51.380;13.762;2023-12-22T08:58:54;7.10;70.40
27266;DHT22;14766;51.380;13.762;2023-12-22T09:01:22;7.10;71.00
27266;DHT22;14766;51.380;13.762;2023-12-22T09:03:51;7.30;71.60
27266;DHT22;14766;51.380;13.762;2023-12-22T09:06:21;7.50;70.80
27266;DHT22;14766;51.380;13.762;2023-12-22T09:08:49;7.60;69.00
27266;DHT22;14766;51.380;13.762;2023-12-22T09:11:19;7.70;68.10
27266;DHT22;14766;51.380;13.762;2023-12-22T09:13:46;7.80;68.00
27266;DHT22;14766;51.380;13.762;2023-12-22T09:16:21;7.90;67.60
27266;DHT22;14766;51.380;13.762;2023-12-22T09:18:49;8.00;67.40
27266;DHT22;14766;51.380;13.762;2023-12-22T09:21:17;8.10;67.20
27266;DHT22;14766;51.380;13.762;2023-12-22T09:23:45;8.10;66.80
27266;DHT22;14766;51.380;13.762;2023-12-22T09:26:14;8.10;66.80
27266;DHT22;14766;51.380;13.762;2023-12-22T09:28:42;8.10;67.10
27266;DHT22;14766;51.380;13.762;2023-12-22T09:31:10;8.10;67.20
27266;DHT22;14766;51.380;13.762;2023-12-22T09:33:40;8.10;66.50
27266;DHT22;14766;51.380;13.762;2023-12-22T09:36:09;8.10;65.20
27266;DHT22;14766;51.380;13.762;2023-12-22T09:38:36;8.10;65.00
27266;DHT22;14766;51.380;13.762;2023-12-22T09:41:04;8.00;64.40
27266;DHT22;14766;51.380;13.762;2023-12-22T09:43:35;8.00;64.00
27266;DHT22;14766;51.380;13.762;2023-12-22T09:46:04;7.90;63.80
27266;DHT22;14766;51.380;13.762;2023-12-22T09:48:34;7.90;64.10
27266;DHT22;14766;51.380;13.762;2023-12-22T09:51:05;7.90;64.10
27266;DHT22;14766;51.380;13.762;2023-12-22T09:53:35;7.80;64.20
27266;DHT22;14766;51.380;13.762;2023-12-22T09:56:03;7.80;64.60
27266;DHT22;14766;51.380;13.762;2023-12-22T09:58:31;7.80;65.10
27266;DHT22;14766;51.380;13.762;2023-12-22T10:00:59;7.80;65.60
27266;DHT22;14766;51.380;13.762;2023-12-22T10:03:30;7.80;65.90
27266;DHT22;14766;51.380;13.762;2023-12-22T10:06:00;7.80;66.00
27266;DHT22;14766;51.380;13.762;2023-12-22T10:08:28;7.80;66.50
27266;DHT22;14766;51.380;13.762;2023-12-22T10:10:56;7.70;66.90
27266;DHT22;14766;51.380;13.762;2023-12-22T10:13:32;7.70;67.10
27266;DHT22;14766;51.380;13.762;2023-12-22T10:16:01;7.60;67.30
27266;DHT22;14766;51.380;13.762;2023-12-22T10:18:31;7.60;68.10
27266;DHT22;14766;51.380;13.762;2023-12-22T10:20:59;7.60;69.50
27266;DHT22;14766;51.380;13.762;2023-12-22T10:23:27;7.70;68.40
27266;DHT22;14766;51.380;13.762;2023-12-22T10:25:54;7.80;68.10
27266;DHT22;14766;51.380;13.762;2023-12-22T10:28:29;7.90;68.30
27266;DHT22;14766;51.380;13.762;2023-12-22T10:30:56;8.20;68.40
27266;DHT22;14766;51.380;13.762;2023-12-22T10:33:26;8.40;67.60
27266;DHT22;14766;51.380;13.762;2023-12-22T10:35:54;8.70;67.00
27266;DHT22;14766;51.380;13.762;2023-12-22T10:38:21;8.90;66.60
27266;DHT22;14766;51.380;13.762;2023-12-22T10:40:49;9.20;65.60
27266;DHT22;14766;51.380;13.762;2023-12-22T10:43:17;9.50;64.00
27266;DHT22;14766;51.380;13.762;2023-12-22T10:45:44;9.70;63.10
27266;DHT22;14766;51.380;13.762;2023-12-22T10:48:13;9.90;62.20
27266;DHT22;14766;51.380;13.762;2023-12-22T10:50:42;10.10;61.50
27266;DHT22;14766;51.380;13.762;2023-12-22T10:53:13;10.20;59.70
27266;DHT22;14766;51.380;13.762;2023-12-22T10:55:46;10.30;58.90
27266;DHT22;14766;51.380;13.762;2023-12-22T10:58:14;10.50;57.60
27266;DHT22;14766;51.380;13.762;2023-12-22T11:00:44;10.50;57.30
27266;DHT22;14766;51.380;13.762;2023-12-22T11:03:16;10.60;57.60
27266;DHT22;14766;51.380;13.762;2023-12-22T11:05:46;10.60;56.70
27266;DHT22;14766;51.380;13.762;2023-12-22T11:08:15;10.60;56.60
27266;DHT22;14766;51.380;13.762;2023-12-22T11:10:48;10.60;56.50
27266;DHT22;14766;51.380;13.762;2023-12-22T11:13:19;10.40;56.20
27266;DHT22;14766;51.380;13.762;2023-12-22T11:15:48;10.30;57.40
27266;DHT22;14766;51.380;13.762;2023-12-22T11:18:17;10.00;57.50
27266;DHT22;14766;51.380;13.762;2023-12-22T11:20:48;9.80;58.70
27266;DHT22;14766;51.380;13.762;2023-12-22T11:23:17;9.50;59.30
27266;DHT22;14766;51.380;13.762;2023-12-22T11:25:46;9.10;60.00
27266;DHT22;14766;51.380;13.762;2023-12-22T11:28:18;8.80;61.50
27266;DHT22;14766;51.380;13.762;2023-12-22T11:30:46;8.50;62.60
27266;DHT22;14766;51.380;13.762;2023-12-22T11:33:14;8.30;63.50
27266;DHT22;14766;51.380;13.762;2023-12-22T11:35:44;8.00;64.40
27266;DHT22;14766;51.380;13.762;2023-12-22T11:38:13;7.80;65.30
27266;DHT22;14766;51.380;13.762;2023-12-22T11:40:41;7.60;66.10
27266;DHT22;14766;51.380;13.762;2023-12-22T11:43:08;7.50;67.20
27266;DHT22;14766;51.380;13.762;2023-12-22T11:45:35;7.40;67.90
27266;DHT22;14766;51.380;13.762;2023-12-22T11:48:11;7.30;69.00
27266;DHT22;14766;51.380;13.762;2023-12-22T11:50:38;7.30;69.70
27266;DHT22;14766;51.380;13.762;2023-12-22T11:53:21;7.30;69.50
27266;DHT22;14766;51.380;13.762;2023-12-22T11:56:02;7.30;69.50
27266;DHT22;14766;51.380;13.762;2023-12-22T11:58:42;7.30;69.50
27266;DHT22;14766;51.380;13.762;2023-12-22T12:01:14;7.30;69.70
27266;DHT22;14766;51.380;13.762;2023-12-22T12:08:50;7.30;70.10
27266;DHT22;14766;51.380;13.762;2023-12-22T12:11:19;7.20;70.50
27266;DHT22;14766;51.380;13.762;2023-12-22T12:13:47;7.20;71.10
27266;DHT22;14766;51.380;13.762;2023-12-22T12:16:19;7.30;71.70
27266;DHT22;14766;51.380;13.762;2023-12-22T12:18:49;7.30;71.70
27266;DHT22;14766;51.380;13.762;2023-12-22T12:21:17;7.30;72.10
27266;DHT22;14766;51.380;13.762;2023-12-22T12:23:48;7.30;72.30
27266;DHT22;14766;51.380;13.762;2023-12-22T12:26:16;7.30;72.50
27266;DHT22;14766;51.380;13.762;2023-12-22T12:28:45;7.30;72.50
27266;DHT22;14766;51.380;13.762;2023-12-22T12:31:14;7.30;72.40
27266;DHT22;14766;51.380;13.762;2023-12-22T12:33:42;7.40;72.50
27266;DHT22;14766;51.380;13.762;2023-12-22T12:36:10;7.40;72.40
27266;DHT22;14766;51.380;13.762;2023-12-22T12:38:55;7.40;72.30
27266;DHT22;14766;51.380;13.762;2023-12-22T12:41:32;7.40;72.30
27266;DHT22;14766;51.380;13.762;2023-12-22T12:44:04;7.50;72.40
27266;DHT22;14766;51.380;13.762;2023-12-22T12:46:36;7.50;72.40
27266;DHT22;14766;51.380;13.762;2023-12-22T12:49:08;7.50;72.40
27266;DHT22;14766;51.380;13.762;2023-12-22T12:51:43;7.50;72.50
27266;DHT22;14766;51.380;13.762;2023-12-22T12:54:11;7.50;72.40
27266;DHT22;14766;51.380;13.762;2023-12-22T12:59:15;7.50;72.50
27266;DHT22;14766;51.380;13.762;2023-12-22T13:01:44;7.50;72.50
27266;DHT22;14766;51.380;13.762;2023-12-22T13:04:13;7.50;72.30
27266;DHT22;14766;51.380;13.762;2023-12-22T13:06:50;7.50;71.40
27266;DHT22;14766;51.380;13.762;2023-12-22T13:09:18;7.50;71.10
27266;DHT22;14766;51.380;13.762;2023-12-22T13:11:46;7.50;70.70
27266;DHT22;14766;51.380;13.762;2023-12-22T13:14:24;7.50;70.70
27266;DHT22;14766;51.380;13.762;2023-12-22T13:16:56;7.50;69.80
27266;DHT22;14766;51.380;13.762;2023-12-22T13:19:25;7.50;69.10
27266;DHT22;14766;51.380;13.762;2023-12-22T13:21:54;7.50;69.10
27266;DHT22;14766;51.380;13.762;2023-12-22T13:24:21;7.60;69.00
27266;DHT22;14766;51.380;13.762;2023-12-22T13:27:02;7.60;68.70
27266;DHT22;14766;51.380;13.762;2023-12-22T13:29:42;7.60;68.80
27266;DHT22;14766;51.380;13.762;2023-12-22T13:32:16;7.60;69.00
27266;DHT22;14766;51.380;13.762;2023-12-22T13:34:54;7.60;68.60
27266;DHT22;14766;51.380;13.762;2023-12-22T13:37:22;7.60;68.70
27266;DHT22;14766;51.380;13.762;2023-12-22T13:39:52;7.50;68.40
27266;DHT22;14766;51.380;13.762;2023-12-22T13:42:20;7.50;68.40
27266;DHT22;14766;51.380;13.762;2023-12-22T13:44:49;7.50;68.30
27266;DHT22;14766;51.380;13.762;2023-12-22T13:47:17;7.40;68.60
27266;DHT22;14766;51.380;13.762;2023-12-22T13:49:48;7.40;69.00
27266;DHT22;14766;51.380;13.762;2023-12-22T13:52:26;7.30;69.30
27266;DHT22;14766;51.380;13.762;2023-12-22T13:54:55;7.30;69.50
27266;DHT22;14766;51.380;13.762;2023-12-22T13:57:25;7.20;69.20
27266;DHT22;14766;51.380;13.762;2023-12-22T13:59:54;7.20;69.20
27266;DHT22;14766;51.380;13.762;2023-12-22T14:02:22;7.10;69.50
27266;DHT22;14766;51.380;13.762;2023-12-22T14:04:51;7.00;69.50
27266;DHT22;14766;51.380;13.762;2023-12-22T14:07:19;7.00;69.80
27266;DHT22;14766;51.380;13.762;2023-12-22T14:09:46;7.00;70.30
27266;DHT22;14766;51.380;13.762;2023-12-22T14:12:13;6.90;70.40
27266;DHT22;14766;51.380;13.762;2023-12-22T14:14:50;6.90;70.60
27266;DHT22;14766;51.380;13.762;2023-12-22T14:17:18;6.90;70.70
27266;DHT22;14766;51.380;13.762;2023-12-22T14:19:47;6.90;70.80
27266;DHT22;14766;51.380;13.762;2023-12-22T14:22:17;6.90;70.60
27266;DHT22;14766;51.380;13.762;2023-12-22T14:24:45;6.90;70.60
27266;DHT22;14766;51.380;13.762;2023-12-22T14:27:12;6.80;71.40
27266;DHT22;14766;51.380;13.762;2023-12-22T14:29:40;6.80;70.60
27266;DHT22;14766;51.380;13.762;2023-12-22T14:32:07;6.80;70.90
27266;DHT22;14766;51.380;13.762;2023-12-22T14:34:36;6.80;71.10
27266;DHT22;14766;51.380;13.762;2023-12-22T14:37:04;6.80;71.10
27266;DHT22;14766;51.380;13.762;2023-12-22T14:39:33;6.80;71.40
27266;DHT22;14766;51.380;13.762;2023-12-22T14:42:01;6.80;71.60
27266;DHT22;14766;51.380;13.762;2023-12-22T14:44:32;6.80;71.70
27266;DHT22;14766;51.380;13.762;2023-12-22T14:47:00;6.80;71.90
27266;DHT22;14766;51.380;13.762;2023-12-22T14:49:28;6.80;71.80
27266;DHT22;14766;51.380;13.762;2023-12-22T14:51:56;6.80;72.10
27266;DHT22;14766;51.380;13.762;2023-12-22T14:54:28;6.80;72.00
27266;DHT22;14766;51.380;13.762;2023-12-22T14:56:55;6.80;72.10
27266;DHT22;14766;51.380;13.762;2023-12-22T14:59:22;6.80;72.10
27266;DHT22;14766;51.380;13.762;2023-12-22T15:01:52;6.80;72.20
27266;DHT22;14766;51.380;13.762;2023-12-22T15:04:19;6.80;72.50
27266;DHT22;14766;51.380;13.762;2023-12-22T15:06:49;6.80;72.50
27266;DHT22;14766;51.380;13.762;2023-12-22T15:09:27;6.80;72.60
27266;DHT22;14766;51.380;13.762;2023-12-22T15:11:56;6.80;72.80
27266;DHT22;14766;51.380;13.762;2023-12-22T15:14:23;6.70;72.70
27266;DHT22;14766;51.380;13.762;2023-12-22T15:16:52;6.70;72.90
27266;DHT22;14766;51.380;13.762;2023-12-22T15:19:21;6.70;73.00
27266;DHT22;14766;51.380;13.762;2023-12-22T15:21:51;6.70;73.10
27266;DHT22;14766;51.380;13.762;2023-12-22T15:24:21;6.70;73.40
27266;DHT22;14766;51.380;13.762;2023-12-22T15:26:50;6.70;73.40
27266;DHT22;14766;51.380;13.762;2023-12-22T15:29:18;6.70;73.40
27266;DHT22;14766;51.380;13.762;2023-12-22T15:31:47;6.70;73.30
27266;DHT22;14766;51.380;13.762;2023-12-22T15:34:15;6.70;73.50
27266;DHT22;14766;51.380;13.762;2023-12-22T15:36:43;6.70;73.60
27266;DHT22;14766;51.380;13.762;2023-12-22T15:39:12;6.70;73.70
27266;DHT22;14766;51.380;13.762;2023-12-22T15:41:40;6.70;73.70
27266;DHT22;14766;51.380;13.762;2023-12-22T15:44:07;6.70;73.70
27266;DHT22;14766;51.380;13.762;2023-12-22T15:46:34;6.70;73.70
27266;DHT22;14766;51.380;13.762;2023-12-22T15:49:01;6.70;73.70